sensor_id;sensor_type;location;lat;lon;timestamp;temperature;humidity
674;DHT22;319;48.764;9.174;2022-12-18T00:00:44;-4.00;99.90
674;DHT22;319;48.764;9.174;2022-12-18T00:03:12;-4.10;99.90
674;DHT22;319;48.764;9.174;2022-12-18T00:05:46;-4.10;99.90
674;DHT22;319;48.764;9.174;2022-12-18T00:08:13;-4.10;99.90
674;DHT22;319;48.764;9.174;2022-12-18T00:10:40;-4.10;99.90
674;DHT22;319;48.764;9.174;2022-12-18T00:13:06;-4.20;99.90
674;DHT22;319;48.764;9.174;2022-12-18T00:15:35;-4.10;99.90
674;DHT22;319;48.764;9.174;2022-12-18T00:18:02;-4.10;99.90
674;DHT22;319;48.764;9.174;2022-12-18T00:20:28;-4.10;99.90
674;DHT22;319;48.764;9.174;2022-12-18T00:22:55;-4.10;99.90
674;DHT22;319;48.764;9.174;2022-12-18T00:25:22;-4.10;99.90
674;DHT22;319;48.764;9.174;2022-12-18T00:27:49;-4.10;99.90
674;DHT22;319;48.764;9.174;2022-12-18T00:30:16;-4.00;99.90
674;DHT22;319;48.764;9.174;2022-12-18T00:32:44;-4.10;99.90
674;DHT22;319;48.764;9.174;2022-12-18T00:35:11;-4.10;99.90
674;DHT22;319;48.764;9.174;2022-12-18T00:37:38;-4.00;99.90
674;DHT22;319;48.764;9.174;2022-12-18T00:40:05;-4.10;99.90
674;DHT22;319;48.764;9.174;2022-12-18T00:42:32;-4.10;99.90
674;DHT22;319;48.764;9.174;2022-12-18T00:45:17;-4.00;99.90
674;DHT22;319;48.764;9.174;2022-12-18T00:47:45;-4.00;99.90
674;DHT22;319;48.764;9.174;2022-12-18T00:50:12;-4.00;99.90
674;DHT22;319;48.764;9.174;2022-12-18T00:52:38;-4.00;99.90
674;DHT22;319;48.764;9.174;2022-12-18T00:55:06;-4.00;99.90
674;DHT22;319;48.764;9.174;2022-12-18T00:57:33;-4.00;99.90
674;DHT22;319;48.764;9.174;2022-12-18T01:00:00;-4.10;99.90
674;DHT22;319;48.764;9.174;2022-12-18T01:02:27;-4.10;99.90
674;DHT22;319;48.764;9.174;2022-12-18T01:04:55;-4.10;99.90
674;DHT22;319;48.764;9.174;2022-12-18T01:07:22;-4.10;99.90
674;DHT22;319;48.764;9.174;2022-12-18T01:09:49;-4.20;99.90
674;DHT22;319;48.764;9.174;2022-12-18T01:12:16;-4.20;99.90
674;DHT22;319;48.764;9.174;2022-12-18T01:14:42;-4.20;99.90
674;DHT22;319;48.764;9.174;2022-12-18T01:17:09;-4.20;99.90
674;DHT22;319;48.764;9.174;2022-12-18T01:19:36;-4.20;99.90
674;DHT22;319;48.764;9.174;2022-12-18T01:22:04;-4.20;99.90
674;DHT22;319;48.764;9.174;2022-12-18T01:24:31;-4.20;99.90
674;DHT22;319;48.764;9.174;2022-12-18T01:26:58;-4.20;99.90
674;DHT22;319;48.764;9.174;2022-12-18T01:29:25;-4.20;99.90
674;DHT22;319;48.764;9.174;2022-12-18T01:31:54;-4.20;99.90
674;DHT22;319;48.764;9.174;2022-12-18T01:34:21;-4.20;99.90
674;DHT22;319;48.764;9.174;2022-12-18T01:36:48;-4.20;99.90
674;DHT22;319;48.764;9.174;2022-12-18T01:39:19;-4.20;99.90
674;DHT22;319;48.764;9.174;2022-12-18T01:41:46;-4.10;99.90
674;DHT22;319;48.764;9.174;2022-12-18T01:45:05;-4.10;99.90
674;DHT22;319;48.764;9.174;2022-12-18T01:47:36;-4.00;99.90
674;DHT22;319;48.764;9.174;2022-12-18T01:50:07;-4.10;99.90
674;DHT22;319;48.764;9.174;2022-12-18T01:52:35;-4.00;99.90
674;DHT22;319;48.764;9.174;2022-12-18T01:55:05;-4.10;99.90
674;DHT22;319;48.764;9.174;2022-12-18T01:57:33;-4.10;99.90
674;DHT22;319;48.764;9.174;2022-12-18T02:00:03;-4.00;99.90
674;DHT22;319;48.764;9.174;2022-12-18T02:02:30;-4.10;99.90
674;DHT22;319;48.764;9.174;2022-12-18T02:04:58;-4.10;99.90
674;DHT22;319;48.764;9.174;2022-12-18T02:07:31;-4.10;99.90
674;DHT22;319;48.764;9.174;2022-12-18T02:10:04;-4.00;99.90
674;DHT22;319;48.764;9.174;2022-12-18T02:12:38;-4.00;99.90
674;DHT22;319;48.764;9.174;2022-12-18T02:15:13;-4.00;99.90
674;DHT22;319;48.764;9.174;2022-12-18T02:17:45;-3.90;99.90
674;DHT22;319;48.764;9.174;2022-12-18T02:20:18;-3.80;99.90
674;DHT22;319;48.764;9.174;2022-12-18T02:23:00;-3.80;99.90
674;DHT22;319;48.764;9.174;2022-12-18T02:25:40;-3.90;99.90
674;DHT22;319;48.764;9.174;2022-12-18T02:28:13;-3.80;99.90
674;DHT22;319;48.764;9.174;2022-12-18T02:30:42;-3.90;99.90
674;DHT22;319;48.764;9.174;2022-12-18T02:33:11;-3.90;99.90
674;DHT22;319;48.764;9.174;2022-12-18T02:35:40;-3.90;99.90
674;DHT22;319;48.764;9.174;2022-12-18T02:38:07;-3.90;99.90
674;DHT22;319;48.764;9.174;2022-12-18T02:40:35;-3.90;99.90
674;DHT22;319;48.764;9.174;2022-12-18T02:43:06;-3.90;99.90
674;DHT22;319;48.764;9.174;2022-12-18T02:45:35;-3.90;99.90
674;DHT22;319;48.764;9.174;2022-12-18T02:48:02;-3.90;99.90
674;DHT22;319;48.764;9.174;2022-12-18T02:50:33;-3.90;99.90
674;DHT22;319;48.764;9.174;2022-12-18T02:53:13;-3.80;99.90
674;DHT22;319;48.764;9.174;2022-12-18T02:55:53;-3.80;99.90
674;DHT22;319;48.764;9.174;2022-12-18T02:58:30;-3.80;99.90
674;DHT22;319;48.764;9.174;2022-12-18T03:01:05;-3.80;99.90
674;DHT22;319;48.764;9.174;2022-12-18T03:03:39;-3.90;99.90
674;DHT22;319;48.764;9.174;2022-12-18T03:06:10;-3.90;99.90
674;DHT22;319;48.764;9.174;2022-12-18T03:08:43;-3.90;99.90
674;DHT22;319;48.764;9.174;2022-12-18T03:11:12;-3.90;99.90
674;DHT22;319;48.764;9.174;2022-12-18T03:13:44;-3.80;99.90
674;DHT22;319;48.764;9.174;2022-12-18T03:16:17;-3.80;99.90
674;DHT22;319;48.764;9.174;2022-12-18T03:18:47;-3.80;99.90
674;DHT22;319;48.764;9.174;2022-12-18T03:21:19;-3.80;99.90
674;DHT22;319;48.764;9.174;2022-12-18T03:23:49;-3.90;99.90
674;DHT22;319;48.764;9.174;2022-12-18T03:26:19;-3.80;99.90
674;DHT22;319;48.764;9.174;2022-12-18T03:28:51;-3.80;99.90
674;DHT22;319;48.764;9.174;2022-12-18T03:31:22;-3.90;99.90
674;DHT22;319;48.764;9.174;2022-12-18T03:33:52;-3.80;99.90
674;DHT22;319;48.764;9.174;2022-12-18T03:36:20;-3.80;99.90
674;DHT22;319;48.764;9.174;2022-12-18T03:38:47;-3.80;99.90
674;DHT22;319;48.764;9.174;2022-12-18T03:41:18;-3.90;99.90
674;DHT22;319;48.764;9.174;2022-12-18T03:43:51;-3.90;99.90
674;DHT22;319;48.764;9.174;2022-12-18T03:46:25;-3.90;99.90
674;DHT22;319;48.764;9.174;2022-12-18T03:48:59;-3.90;99.90
674;DHT22;319;48.764;9.174;2022-12-18T03:51:31;-3.90;99.90
674;DHT22;319;48.764;9.174;2022-12-18T03:54:04;-4.00;99.90
674;DHT22;319;48.764;9.174;2022-12-18T03:56:36;-4.00;99.90
674;DHT22;319;48.764;9.174;2022-12-18T03:59:04;-4.10;99.90
674;DHT22;319;48.764;9.174;2022-12-18T04:01:37;-4.10;99.90
674;DHT22;319;48.764;9.174;2022-12-18T04:04:05;-4.10;99.90
674;DHT22;319;48.764;9.174;2022-12-18T04:06:33;-4.10;99.90
674;DHT22;319;48.764;9.174;2022-12-18T04:09:01;-4.10;99.90
674;DHT22;319;48.764;9.174;2022-12-18T04:11:28;-4.20;99.90
674;DHT22;319;48.764;9.174;2022-12-18T04:13:56;-4.20;99.90
674;DHT22;319;48.764;9.174;2022-12-18T04:16:23;-4.30;99.90
674;DHT22;319;48.764;9.174;2022-12-18T04:18:51;-4.30;99.90
674;DHT22;319;48.764;9.174;2022-12-18T04:21:18;-4.30;99.90
674;DHT22;319;48.764;9.174;2022-12-18T04:23:45;-4.40;99.90
674;DHT22;319;48.764;9.174;2022-12-18T04:26:12;-4.40;99.90
674;DHT22;319;48.764;9.174;2022-12-18T04:28:39;-4.40;99.90
674;DHT22;319;48.764;9.174;2022-12-18T04:31:06;-4.40;99.90
674;DHT22;319;48.764;9.174;2022-12-18T04:33:33;-4.50;99.80
674;DHT22;319;48.764;9.174;2022-12-18T04:36:01;-4.50;99.80
674;DHT22;319;48.764;9.174;2022-12-18T04:38:28;-4.60;99.80
674;DHT22;319;48.764;9.174;2022-12-18T04:40:55;-4.60;99.90
674;DHT22;319;48.764;9.174;2022-12-18T04:43:22;-4.70;99.70
674;DHT22;319;48.764;9.174;2022-12-18T04:45:48;-4.70;99.70
674;DHT22;319;48.764;9.174;2022-12-18T04:48:15;-4.70;99.90
674;DHT22;319;48.764;9.174;2022-12-18T04:50:42;-4.70;99.90
674;DHT22;319;48.764;9.174;2022-12-18T04:53:10;-4.90;99.90
674;DHT22;319;48.764;9.174;2022-12-18T04:55:37;-4.90;99.70
674;DHT22;319;48.764;9.174;2022-12-18T04:58:04;-4.80;99.90
674;DHT22;319;48.764;9.174;2022-12-18T05:00:30;-4.80;99.70
674;DHT22;319;48.764;9.174;2022-12-18T05:02:57;-4.90;99.40
674;DHT22;319;48.764;9.174;2022-12-18T05:05:24;-4.90;99.60
674;DHT22;319;48.764;9.174;2022-12-18T05:07:51;-4.90;99.70
674;DHT22;319;48.764;9.174;2022-12-18T05:10:19;-4.90;99.70
674;DHT22;319;48.764;9.174;2022-12-18T05:12:46;-4.90;99.80
674;DHT22;319;48.764;9.174;2022-12-18T05:15:28;-4.80;99.90
674;DHT22;319;48.764;9.174;2022-12-18T05:17:55;-4.80;99.90
674;DHT22;319;48.764;9.174;2022-12-18T05:20:21;-4.80;99.90
674;DHT22;319;48.764;9.174;2022-12-18T05:22:48;-4.80;99.70
674;DHT22;319;48.764;9.174;2022-12-18T05:25:15;-4.90;99.60
674;DHT22;319;48.764;9.174;2022-12-18T05:27:44;-4.90;99.50
674;DHT22;319;48.764;9.174;2022-12-18T05:30:12;-4.90;99.70
674;DHT22;319;48.764;9.174;2022-12-18T05:32:39;-4.80;99.80
674;DHT22;319;48.764;9.174;2022-12-18T05:35:08;-5.00;99.40
674;DHT22;319;48.764;9.174;2022-12-18T05:37:35;-5.10;99.00
674;DHT22;319;48.764;9.174;2022-12-18T05:40:02;-5.20;99.10
674;DHT22;319;48.764;9.174;2022-12-18T05:42:30;-5.20;99.40
674;DHT22;319;48.764;9.174;2022-12-18T05:44:59;-5.10;99.70
674;DHT22;319;48.764;9.174;2022-12-18T05:47:26;-5.30;99.50
674;DHT22;319;48.764;9.174;2022-12-18T05:49:53;-5.30;99.30
674;DHT22;319;48.764;9.174;2022-12-18T05:52:20;-5.30;99.20
674;DHT22;319;48.764;9.174;2022-12-18T05:54:47;-5.20;99.30
674;DHT22;319;48.764;9.174;2022-12-18T05:57:14;-5.20;99.20
674;DHT22;319;48.764;9.174;2022-12-18T05:59:40;-5.30;99.00
674;DHT22;319;48.764;9.174;2022-12-18T06:02:08;-5.30;99.10
674;DHT22;319;48.764;9.174;2022-12-18T06:04:35;-5.40;99.20
674;DHT22;319;48.764;9.174;2022-12-18T06:07:02;-5.40;99.40
674;DHT22;319;48.764;9.174;2022-12-18T06:09:29;-5.40;99.50
674;DHT22;319;48.764;9.174;2022-12-18T06:11:56;-5.40;99.70
674;DHT22;319;48.764;9.174;2022-12-18T06:14:23;-5.40;99.70
674;DHT22;319;48.764;9.174;2022-12-18T06:16:50;-5.30;99.60
674;DHT22;319;48.764;9.174;2022-12-18T06:19:19;-5.40;99.40
674;DHT22;319;48.764;9.174;2022-12-18T06:21:46;-5.40;99.30
674;DHT22;319;48.764;9.174;2022-12-18T06:24:13;-5.40;99.20
674;DHT22;319;48.764;9.174;2022-12-18T06:26:40;-5.40;99.20
674;DHT22;319;48.764;9.174;2022-12-18T06:29:06;-5.40;99.10
674;DHT22;319;48.764;9.174;2022-12-18T06:31:33;-5.40;99.00
674;DHT22;319;48.764;9.174;2022-12-18T06:34:02;-5.40;99.00
674;DHT22;319;48.764;9.174;2022-12-18T06:36:30;-5.50;99.00
674;DHT22;319;48.764;9.174;2022-12-18T06:38:58;-5.50;99.20
674;DHT22;319;48.764;9.174;2022-12-18T06:41:25;-5.40;99.20
674;DHT22;319;48.764;9.174;2022-12-18T06:43:51;-5.50;99.00
674;DHT22;319;48.764;9.174;2022-12-18T06:46:18;-5.40;99.10
674;DHT22;319;48.764;9.174;2022-12-18T06:48:47;-5.30;99.10
674;DHT22;319;48.764;9.174;2022-12-18T06:51:17;-5.30;99.10
674;DHT22;319;48.764;9.174;2022-12-18T06:53:45;-5.30;99.20
674;DHT22;319;48.764;9.174;2022-12-18T06:56:12;-5.30;99.20
674;DHT22;319;48.764;9.174;2022-12-18T06:58:39;-5.30;99.40
674;DHT22;319;48.764;9.174;2022-12-18T07:01:08;-5.40;98.90
674;DHT22;319;48.764;9.174;2022-12-18T07:03:35;-5.40;98.90
674;DHT22;319;48.764;9.174;2022-12-18T07:06:03;-5.30;99.00
674;DHT22;319;48.764;9.174;2022-12-18T07:08:30;-5.30;98.90
674;DHT22;319;48.764;9.174;2022-12-18T07:10:58;-5.30;99.90
674;DHT22;319;48.764;9.174;2022-12-18T07:13:25;-5.30;99.00
674;DHT22;319;48.764;9.174;2022-12-18T07:15:52;-5.40;99.00
674;DHT22;319;48.764;9.174;2022-12-18T07:18:19;-5.40;99.10
674;DHT22;319;48.764;9.174;2022-12-18T07:20:45;-5.40;99.10
674;DHT22;319;48.764;9.174;2022-12-18T07:23:12;-5.40;99.20
674;DHT22;319;48.764;9.174;2022-12-18T07:25:39;-5.40;99.30
674;DHT22;319;48.764;9.174;2022-12-18T07:28:07;-5.40;99.30
674;DHT22;319;48.764;9.174;2022-12-18T07:30:37;-5.30;99.20
674;DHT22;319;48.764;9.174;2022-12-18T07:33:04;-5.30;99.10
674;DHT22;319;48.764;9.174;2022-12-18T07:35:30;-5.30;99.00
674;DHT22;319;48.764;9.174;2022-12-18T07:37:57;-5.30;99.00
674;DHT22;319;48.764;9.174;2022-12-18T07:40:24;-5.30;98.90
674;DHT22;319;48.764;9.174;2022-12-18T07:42:51;-5.40;98.70
674;DHT22;319;48.764;9.174;2022-12-18T07:45:19;-5.40;98.70
674;DHT22;319;48.764;9.174;2022-12-18T07:47:46;-5.40;98.90
674;DHT22;319;48.764;9.174;2022-12-18T07:50:12;-5.40;98.90
674;DHT22;319;48.764;9.174;2022-12-18T07:52:39;-5.40;98.60
674;DHT22;319;48.764;9.174;2022-12-18T07:55:07;-5.30;98.60
674;DHT22;319;48.764;9.174;2022-12-18T07:57:33;-5.30;98.60
674;DHT22;319;48.764;9.174;2022-12-18T08:00:00;-5.30;98.50
674;DHT22;319;48.764;9.174;2022-12-18T08:02:30;-5.30;98.60
674;DHT22;319;48.764;9.174;2022-12-18T08:04:57;-5.30;98.70
674;DHT22;319;48.764;9.174;2022-12-18T08:07:24;-5.30;98.90
674;DHT22;319;48.764;9.174;2022-12-18T08:09:51;-5.30;99.00
674;DHT22;319;48.764;9.174;2022-12-18T08:12:18;-5.20;99.10
674;DHT22;319;48.764;9.174;2022-12-18T08:14:44;-5.10;99.00
674;DHT22;319;48.764;9.174;2022-12-18T08:17:11;-5.10;98.80
674;DHT22;319;48.764;9.174;2022-12-18T08:19:39;-5.10;98.80
674;DHT22;319;48.764;9.174;2022-12-18T08:22:06;-5.00;98.90
674;DHT22;319;48.764;9.174;2022-12-18T08:24:33;-4.90;98.80
674;DHT22;319;48.764;9.174;2022-12-18T08:26:59;-4.90;98.80
674;DHT22;319;48.764;9.174;2022-12-18T08:29:26;-4.70;98.80
674;DHT22;319;48.764;9.174;2022-12-18T08:31:53;-4.70;98.80
674;DHT22;319;48.764;9.174;2022-12-18T08:34:20;-4.70;98.90
674;DHT22;319;48.764;9.174;2022-12-18T08:36:48;-4.60;98.80
674;DHT22;319;48.764;9.174;2022-12-18T08:39:15;-4.50;98.80
674;DHT22;319;48.764;9.174;2022-12-18T08:41:42;-4.50;98.80
674;DHT22;319;48.764;9.174;2022-12-18T08:44:28;-4.50;98.70
674;DHT22;319;48.764;9.174;2022-12-18T08:47:02;-4.50;98.70
674;DHT22;319;48.764;9.174;2022-12-18T08:49:29;-4.50;98.80
674;DHT22;319;48.764;9.174;2022-12-18T08:51:58;-4.50;99.20
674;DHT22;319;48.764;9.174;2022-12-18T08:54:25;-4.40;99.00
674;DHT22;319;48.764;9.174;2022-12-18T08:56:52;-4.40;99.20
674;DHT22;319;48.764;9.174;2022-12-18T08:59:19;-4.30;99.50
674;DHT22;319;48.764;9.174;2022-12-18T09:01:46;-4.10;99.00
674;DHT22;319;48.764;9.174;2022-12-18T09:04:14;-4.00;98.90
674;DHT22;319;48.764;9.174;2022-12-18T09:06:41;-3.90;98.90
674;DHT22;319;48.764;9.174;2022-12-18T09:09:11;-3.80;99.00
674;DHT22;319;48.764;9.174;2022-12-18T09:11:38;-3.70;99.00
674;DHT22;319;48.764;9.174;2022-12-18T09:14:05;-3.50;98.90
674;DHT22;319;48.764;9.174;2022-12-18T09:16:33;-3.20;98.80
674;DHT22;319;48.764;9.174;2022-12-18T09:19:01;-3.00;98.50
674;DHT22;319;48.764;9.174;2022-12-18T09:21:29;-3.00;98.20
674;DHT22;319;48.764;9.174;2022-12-18T09:23:56;-2.90;98.00
674;DHT22;319;48.764;9.174;2022-12-18T09:26:26;-2.90;98.00
674;DHT22;319;48.764;9.174;2022-12-18T09:28:53;-2.80;98.20
674;DHT22;319;48.764;9.174;2022-12-18T09:31:22;-2.90;98.00
674;DHT22;319;48.764;9.174;2022-12-18T09:33:50;-2.80;98.20
674;DHT22;319;48.764;9.174;2022-12-18T09:36:17;-2.70;98.20
674;DHT22;319;48.764;9.174;2022-12-18T09:38:45;-2.60;98.20
674;DHT22;319;48.764;9.174;2022-12-18T09:41:27;-2.60;98.00
674;DHT22;319;48.764;9.174;2022-12-18T09:43:59;-2.60;97.90
674;DHT22;319;48.764;9.174;2022-12-18T09:46:30;-2.30;97.90
674;DHT22;319;48.764;9.174;2022-12-18T09:49:02;-2.30;97.80
674;DHT22;319;48.764;9.174;2022-12-18T09:51:33;-2.30;97.80
674;DHT22;319;48.764;9.174;2022-12-18T09:54:05;-2.30;97.90
674;DHT22;319;48.764;9.174;2022-12-18T09:56:39;-2.30;97.90
674;DHT22;319;48.764;9.174;2022-12-18T09:59:18;-2.20;97.90
674;DHT22;319;48.764;9.174;2022-12-18T10:01:46;-2.10;97.80
674;DHT22;319;48.764;9.174;2022-12-18T10:04:13;-1.90;97.80
674;DHT22;319;48.764;9.174;2022-12-18T10:06:48;-2.00;97.70
674;DHT22;319;48.764;9.174;2022-12-18T10:09:24;-1.90;97.90
674;DHT22;319;48.764;9.174;2022-12-18T10:11:59;-1.70;98.00
674;DHT22;319;48.764;9.174;2022-12-18T10:14:34;-1.60;98.00
674;DHT22;319;48.764;9.174;2022-12-18T10:17:07;-1.40;97.80
674;DHT22;319;48.764;9.174;2022-12-18T10:19:40;-1.40;97.80
674;DHT22;319;48.764;9.174;2022-12-18T10:22:21;-1.40;97.70
674;DHT22;319;48.764;9.174;2022-12-18T10:24:55;-1.40;97.80
674;DHT22;319;48.764;9.174;2022-12-18T10:27:27;-1.20;97.90
674;DHT22;319;48.764;9.174;2022-12-18T10:29:55;-1.10;97.80
674;DHT22;319;48.764;9.174;2022-12-18T10:32:25;-1.00;97.70
674;DHT22;319;48.764;9.174;2022-12-18T10:34:53;-0.90;97.50
674;DHT22;319;48.764;9.174;2022-12-18T10:37:25;-0.80;97.40
674;DHT22;319;48.764;9.174;2022-12-18T10:40:08;-0.80;97.40
674;DHT22;319;48.764;9.174;2022-12-18T10:42:37;-0.70;97.50
674;DHT22;319;48.764;9.174;2022-12-18T10:45:09;-0.70;97.50
674;DHT22;319;48.764;9.174;2022-12-18T10:47:42;-0.60;97.50
674;DHT22;319;48.764;9.174;2022-12-18T10:50:22;-0.50;97.60
674;DHT22;319;48.764;9.174;2022-12-18T10:53:00;-0.50;97.60
674;DHT22;319;48.764;9.174;2022-12-18T10:55:31;-0.30;97.60
674;DHT22;319;48.764;9.174;2022-12-18T10:58:21;-0.10;97.50
674;DHT22;319;48.764;9.174;2022-12-18T11:01:03;-0.10;97.30
674;DHT22;319;48.764;9.174;2022-12-18T11:03:36;-0.10;97.30
674;DHT22;319;48.764;9.174;2022-12-18T11:06:06;0.00;97.40
674;DHT22;319;48.764;9.174;2022-12-18T11:08:34;0.00;97.30
674;DHT22;319;48.764;9.174;2022-12-18T11:11:01;0.10;97.30
674;DHT22;319;48.764;9.174;2022-12-18T11:13:30;0.20;97.10
674;DHT22;319;48.764;9.174;2022-12-18T11:15:58;0.30;97.20
674;DHT22;319;48.764;9.174;2022-12-18T11:18:28;0.40;97.20
674;DHT22;319;48.764;9.174;2022-12-18T11:20:59;0.50;97.50
674;DHT22;319;48.764;9.174;2022-12-18T11:23:28;0.50;97.10
674;DHT22;319;48.764;9.174;2022-12-18T11:25:57;0.60;97.00
674;DHT22;319;48.764;9.174;2022-12-18T11:28:35;0.60;97.00
674;DHT22;319;48.764;9.174;2022-12-18T11:31:16;0.70;97.00
674;DHT22;319;48.764;9.174;2022-12-18T11:33:46;0.90;97.10
674;DHT22;319;48.764;9.174;2022-12-18T11:36:16;0.80;96.70
674;DHT22;319;48.764;9.174;2022-12-18T11:38:44;0.70;96.60
674;DHT22;319;48.764;9.174;2022-12-18T11:41:19;0.50;96.90
674;DHT22;319;48.764;9.174;2022-12-18T11:43:52;0.30;97.00
674;DHT22;319;48.764;9.174;2022-12-18T11:46:26;0.10;97.30
674;DHT22;319;48.764;9.174;2022-12-18T11:48:58;-0.10;97.70
674;DHT22;319;48.764;9.174;2022-12-18T11:51:33;-0.10;98.10
674;DHT22;319;48.764;9.174;2022-12-18T11:54:01;-0.30;98.20
674;DHT22;319;48.764;9.174;2022-12-18T11:56:35;-0.30;98.30
674;DHT22;319;48.764;9.174;2022-12-18T11:59:12;-0.30;98.50
674;DHT22;319;48.764;9.174;2022-12-18T12:01:48;-0.20;98.70
674;DHT22;319;48.764;9.174;2022-12-18T12:04:33;0.00;98.70
674;DHT22;319;48.764;9.174;2022-12-18T12:07:17;0.10;98.50
674;DHT22;319;48.764;9.174;2022-12-18T12:09:53;0.10;98.30
674;DHT22;319;48.764;9.174;2022-12-18T12:12:32;0.00;98.10
674;DHT22;319;48.764;9.174;2022-12-18T12:15:23;-0.10;98.10
674;DHT22;319;48.764;9.174;2022-12-18T12:17:58;-0.20;98.40
674;DHT22;319;48.764;9.174;2022-12-18T12:20:33;-0.20;98.60
674;DHT22;319;48.764;9.174;2022-12-18T12:23:13;-0.20;98.50
674;DHT22;319;48.764;9.174;2022-12-18T12:26:00;-0.10;98.70
674;DHT22;319;48.764;9.174;2022-12-18T12:28:42;0.00;98.80
674;DHT22;319;48.764;9.174;2022-12-18T12:31:19;0.10;98.70
674;DHT22;319;48.764;9.174;2022-12-18T12:34:00;0.00;98.50
674;DHT22;319;48.764;9.174;2022-12-18T12:36:35;0.10;98.60
674;DHT22;319;48.764;9.174;2022-12-18T12:39:10;0.20;98.60
674;DHT22;319;48.764;9.174;2022-12-18T12:41:39;0.20;98.40
674;DHT22;319;48.764;9.174;2022-12-18T12:44:27;0.30;98.30
674;DHT22;319;48.764;9.174;2022-12-18T12:46:59;0.40;98.10
674;DHT22;319;48.764;9.174;2022-12-18T12:49:31;0.40;97.90
674;DHT22;319;48.764;9.174;2022-12-18T12:52:03;0.30;97.80
674;DHT22;319;48.764;9.174;2022-12-18T12:54:32;0.40;98.00
674;DHT22;319;48.764;9.174;2022-12-18T12:57:02;0.40;98.10
674;DHT22;319;48.764;9.174;2022-12-18T12:59:37;0.40;98.00
674;DHT22;319;48.764;9.174;2022-12-18T13:02:16;0.60;98.00
674;DHT22;319;48.764;9.174;2022-12-18T13:04:49;0.70;97.90
674;DHT22;319;48.764;9.174;2022-12-18T13:07:23;0.80;97.80
674;DHT22;319;48.764;9.174;2022-12-18T13:10:13;0.90;97.70
674;DHT22;319;48.764;9.174;2022-12-18T13:12:51;0.90;97.50
674;DHT22;319;48.764;9.174;2022-12-18T13:15:28;1.10;97.60
674;DHT22;319;48.764;9.174;2022-12-18T13:18:13;1.10;97.40
674;DHT22;319;48.764;9.174;2022-12-18T13:20:42;1.10;97.30
674;DHT22;319;48.764;9.174;2022-12-18T13:23:29;1.30;97.20
674;DHT22;319;48.764;9.174;2022-12-18T13:25:57;1.30;97.00
674;DHT22;319;48.764;9.174;2022-12-18T13:28:51;1.30;97.10
674;DHT22;319;48.764;9.174;2022-12-18T13:34:32;1.40;97.00
674;DHT22;319;48.764;9.174;2022-12-18T13:39:59;1.50;97.00
674;DHT22;319;48.764;9.174;2022-12-18T13:42:38;1.60;97.00
674;DHT22;319;48.764;9.174;2022-12-18T13:45:37;1.50;96.90
674;DHT22;319;48.764;9.174;2022-12-18T13:48:04;1.50;97.00
674;DHT22;319;48.764;9.174;2022-12-18T13:50:33;1.50;97.10
674;DHT22;319;48.764;9.174;2022-12-18T13:53:00;1.50;97.20
674;DHT22;319;48.764;9.174;2022-12-18T13:55:28;1.50;97.20
674;DHT22;319;48.764;9.174;2022-12-18T13:58:03;1.40;97.30
674;DHT22;319;48.764;9.174;2022-12-18T14:00:31;1.30;97.40
674;DHT22;319;48.764;9.174;2022-12-18T14:02:58;1.10;97.70
674;DHT22;319;48.764;9.174;2022-12-18T14:05:27;1.10;98.00
674;DHT22;319;48.764;9.174;2022-12-18T14:08:00;1.00;98.10
674;DHT22;319;48.764;9.174;2022-12-18T14:10:28;1.00;98.40
674;DHT22;319;48.764;9.174;2022-12-18T14:13:05;0.90;98.70
674;DHT22;319;48.764;9.174;2022-12-18T14:15:34;1.00;98.70
674;DHT22;319;48.764;9.174;2022-12-18T14:18:03;1.00;98.50
674;DHT22;319;48.764;9.174;2022-12-18T14:20:35;0.90;98.50
674;DHT22;319;48.764;9.174;2022-12-18T14:23:04;0.80;98.70
674;DHT22;319;48.764;9.174;2022-12-18T14:25:31;0.80;98.90
674;DHT22;319;48.764;9.174;2022-12-18T14:28:07;0.70;99.00
674;DHT22;319;48.764;9.174;2022-12-18T14:30:39;0.70;99.10
674;DHT22;319;48.764;9.174;2022-12-18T14:33:09;0.80;99.20
674;DHT22;319;48.764;9.174;2022-12-18T14:35:38;0.80;99.10
674;DHT22;319;48.764;9.174;2022-12-18T14:38:20;0.80;99.10
674;DHT22;319;48.764;9.174;2022-12-18T14:40:51;1.00;99.10
674;DHT22;319;48.764;9.174;2022-12-18T14:43:18;0.90;99.10
674;DHT22;319;48.764;9.174;2022-12-18T14:45:45;0.80;99.10
674;DHT22;319;48.764;9.174;2022-12-18T14:48:18;0.80;99.10
674;DHT22;319;48.764;9.174;2022-12-18T14:50:57;0.80;99.10
674;DHT22;319;48.764;9.174;2022-12-18T14:53:33;0.80;99.10
674;DHT22;319;48.764;9.174;2022-12-18T14:56:01;0.80;99.10
674;DHT22;319;48.764;9.174;2022-12-18T14:58:30;0.80;99.10
674;DHT22;319;48.764;9.174;2022-12-18T15:00:57;0.70;99.30
674;DHT22;319;48.764;9.174;2022-12-18T15:03:27;0.60;99.20
674;DHT22;319;48.764;9.174;2022-12-18T15:05:54;0.60;99.40
674;DHT22;319;48.764;9.174;2022-12-18T15:08:31;0.50;99.50
674;DHT22;319;48.764;9.174;2022-12-18T15:11:01;0.60;99.60
674;DHT22;319;48.764;9.174;2022-12-18T15:13:27;0.50;99.50
674;DHT22;319;48.764;9.174;2022-12-18T15:15:55;0.40;99.60
674;DHT22;319;48.764;9.174;2022-12-18T15:18:29;0.30;99.70
674;DHT22;319;48.764;9.174;2022-12-18T15:20:59;0.30;99.90
674;DHT22;319;48.764;9.174;2022-12-18T15:23:36;0.30;99.90
674;DHT22;319;48.764;9.174;2022-12-18T15:26:06;0.20;99.90
674;DHT22;319;48.764;9.174;2022-12-18T15:28:43;0.10;99.90
674;DHT22;319;48.764;9.174;2022-12-18T15:31:22;0.10;99.90
674;DHT22;319;48.764;9.174;2022-12-18T15:34:11;0.00;99.90
674;DHT22;319;48.764;9.174;2022-12-18T15:36:39;-0.20;99.90
674;DHT22;319;48.764;9.174;2022-12-18T15:39:11;-0.20;99.90
674;DHT22;319;48.764;9.174;2022-12-18T15:41:39;-0.20;99.90
674;DHT22;319;48.764;9.174;2022-12-18T15:44:29;-0.20;99.90
674;DHT22;319;48.764;9.174;2022-12-18T15:46:56;-0.30;99.90
674;DHT22;319;48.764;9.174;2022-12-18T15:49:23;-0.30;99.90
674;DHT22;319;48.764;9.174;2022-12-18T15:51:56;-0.30;99.90
674;DHT22;319;48.764;9.174;2022-12-18T15:54:25;-0.40;99.90
674;DHT22;319;48.764;9.174;2022-12-18T15:57:10;-0.30;99.90
674;DHT22;319;48.764;9.174;2022-12-18T15:59:52;-0.40;99.90
674;DHT22;319;48.764;9.174;2022-12-18T16:02:22;-0.40;99.90
674;DHT22;319;48.764;9.174;2022-12-18T16:04:50;-0.40;99.90
674;DHT22;319;48.764;9.174;2022-12-18T16:07:17;-0.30;99.90
674;DHT22;319;48.764;9.174;2022-12-18T16:09:47;-0.30;99.90
674;DHT22;319;48.764;9.174;2022-12-18T16:12:19;-0.30;99.90
674;DHT22;319;48.764;9.174;2022-12-18T16:14:47;-0.30;99.90
674;DHT22;319;48.764;9.174;2022-12-18T16:17:15;-0.50;99.90
674;DHT22;319;48.764;9.174;2022-12-18T16:19:43;-0.50;99.90
674;DHT22;319;48.764;9.174;2022-12-18T16:22:18;-0.60;99.90
674;DHT22;319;48.764;9.174;2022-12-18T16:24:48;-0.70;99.90
674;DHT22;319;48.764;9.174;2022-12-18T16:27:15;-0.80;99.90
674;DHT22;319;48.764;9.174;2022-12-18T16:29:42;-0.80;99.90
674;DHT22;319;48.764;9.174;2022-12-18T16:32:12;-0.80;99.90
674;DHT22;319;48.764;9.174;2022-12-18T16:34:39;-0.80;99.90
674;DHT22;319;48.764;9.174;2022-12-18T16:37:09;-0.80;99.90
674;DHT22;319;48.764;9.174;2022-12-18T16:39:37;-0.80;99.90
674;DHT22;319;48.764;9.174;2022-12-18T16:42:09;-0.80;99.90
674;DHT22;319;48.764;9.174;2022-12-18T16:44:38;-0.70;99.90
674;DHT22;319;48.764;9.174;2022-12-18T16:47:05;-0.70;99.90
674;DHT22;319;48.764;9.174;2022-12-18T16:49:32;-0.70;99.90
674;DHT22;319;48.764;9.174;2022-12-18T16:52:01;-0.70;99.90
674;DHT22;319;48.764;9.174;2022-12-18T16:54:27;-0.70;99.90
674;DHT22;319;48.764;9.174;2022-12-18T16:57:01;-0.70;99.90
674;DHT22;319;48.764;9.174;2022-12-18T16:59:31;-0.60;99.90
674;DHT22;319;48.764;9.174;2022-12-18T17:01:58;-0.60;99.90
674;DHT22;319;48.764;9.174;2022-12-18T17:04:25;-0.50;99.90
674;DHT22;319;48.764;9.174;2022-12-18T17:06:52;-0.50;99.90